sensor_id;sensor_type;location;lat;lon;timestamp;temperature;humidity
51466;DHT22;37542;50.164;9.086;2022-10-26T00:03:21;8.00;67.50
51466;DHT22;37542;50.164;9.086;2022-10-26T00:07:01;8.00;67.60
51466;DHT22;37542;50.164;9.086;2022-10-26T00:10:42;8.00;67.90
51466;DHT22;37542;50.164;9.086;2022-10-26T00:14:23;8.00;67.90
51466;DHT22;37542;50.164;9.086;2022-10-26T00:18:04;7.90;68.00
51466;DHT22;37542;50.164;9.086;2022-10-26T00:21:45;8.00;68.10
51466;DHT22;37542;50.164;9.086;2022-10-26T00:25:26;8.00;68.30
51466;DHT22;37542;50.164;9.086;2022-10-26T00:29:08;8.00;68.40
51466;DHT22;37542;50.164;9.086;2022-10-26T00:32:51;8.00;68.50
51466;DHT22;37542;50.164;9.086;2022-10-26T00:36:32;8.00;68.50
51466;DHT22;37542;50.164;9.086;2022-10-26T00:40:13;8.00;68.70
51466;DHT22;37542;50.164;9.086;2022-10-26T00:43:54;8.00;68.70
51466;DHT22;37542;50.164;9.086;2022-10-26T00:47:42;8.10;68.90
51466;DHT22;37542;50.164;9.086;2022-10-26T00:51:34;8.10;69.40
51466;DHT22;37542;50.164;9.086;2022-10-26T00:55:21;8.10;69.10
51466;DHT22;37542;50.164;9.086;2022-10-26T00:59:09;8.10;69.20
51466;DHT22;37542;50.164;9.086;2022-10-26T01:02:54;8.20;69.30
51466;DHT22;37542;50.164;9.086;2022-10-26T01:06:38;8.20;69.30
51466;DHT22;37542;50.164;9.086;2022-10-26T01:10:22;8.20;69.10
51466;DHT22;37542;50.164;9.086;2022-10-26T01:14:07;8.30;68.90
51466;DHT22;37542;50.164;9.086;2022-10-26T01:34:08;8.30;69.50
51466;DHT22;37542;50.164;9.086;2022-10-26T01:38:21;8.30;69.50
51466;DHT22;37542;50.164;9.086;2022-10-26T01:42:07;8.30;70.20
51466;DHT22;37542;50.164;9.086;2022-10-26T01:45:52;8.30;69.30
51466;DHT22;37542;50.164;9.086;2022-10-26T01:49:38;8.30;69.50
51466;DHT22;37542;50.164;9.086;2022-10-26T01:53:25;8.30;70.40
51466;DHT22;37542;50.164;9.086;2022-10-26T01:57:10;8.40;69.80
51466;DHT22;37542;50.164;9.086;2022-10-26T02:05:46;8.40;70.50
51466;DHT22;37542;50.164;9.086;2022-10-26T02:17:58;8.50;70.40
51466;DHT22;37542;50.164;9.086;2022-10-26T02:21:48;8.50;70.80
51466;DHT22;37542;50.164;9.086;2022-10-26T02:25:38;8.50;70.20
51466;DHT22;37542;50.164;9.086;2022-10-26T02:29:22;8.50;70.10
51466;DHT22;37542;50.164;9.086;2022-10-26T02:33:06;8.50;70.00
51466;DHT22;37542;50.164;9.086;2022-10-26T02:36:53;8.50;70.30
51466;DHT22;37542;50.164;9.086;2022-10-26T02:40:36;8.60;70.40
51466;DHT22;37542;50.164;9.086;2022-10-26T02:48:06;8.60;69.90
51466;DHT22;37542;50.164;9.086;2022-10-26T02:52:08;8.60;69.90
51466;DHT22;37542;50.164;9.086;2022-10-26T02:55:54;8.60;71.00
51466;DHT22;37542;50.164;9.086;2022-10-26T02:59:37;8.60;70.00
51466;DHT22;37542;50.164;9.086;2022-10-26T03:03:22;8.70;70.00
51466;DHT22;37542;50.164;9.086;2022-10-26T03:07:03;8.60;69.90
51466;DHT22;37542;50.164;9.086;2022-10-26T03:10:44;8.60;69.70
51466;DHT22;37542;50.164;9.086;2022-10-26T03:14:25;8.60;69.70
51466;DHT22;37542;50.164;9.086;2022-10-26T03:18:06;8.60;69.70
51466;DHT22;37542;50.164;9.086;2022-10-26T03:21:47;8.60;69.80
51466;DHT22;37542;50.164;9.086;2022-10-26T03:25:28;8.60;70.10
51466;DHT22;37542;50.164;9.086;2022-10-26T03:29:09;8.60;69.60
51466;DHT22;37542;50.164;9.086;2022-10-26T03:32:50;8.60;69.80
51466;DHT22;37542;50.164;9.086;2022-10-26T03:36:30;8.60;70.00
51466;DHT22;37542;50.164;9.086;2022-10-26T03:40:12;8.60;70.30
51466;DHT22;37542;50.164;9.086;2022-10-26T03:43:53;8.60;70.40
51466;DHT22;37542;50.164;9.086;2022-10-26T03:47:42;8.60;70.20
51466;DHT22;37542;50.164;9.086;2022-10-26T03:51:27;8.70;70.90
51466;DHT22;37542;50.164;9.086;2022-10-26T03:55:08;8.60;70.40
51466;DHT22;37542;50.164;9.086;2022-10-26T03:58:49;8.70;70.60
51466;DHT22;37542;50.164;9.086;2022-10-26T04:02:30;8.70;70.70
51466;DHT22;37542;50.164;9.086;2022-10-26T04:06:11;8.70;70.70
51466;DHT22;37542;50.164;9.086;2022-10-26T04:09:51;8.70;70.80
51466;DHT22;37542;50.164;9.086;2022-10-26T04:13:32;8.70;70.50
51466;DHT22;37542;50.164;9.086;2022-10-26T04:17:13;8.70;70.40
51466;DHT22;37542;50.164;9.086;2022-10-26T04:20:54;8.70;70.30
51466;DHT22;37542;50.164;9.086;2022-10-26T04:24:35;8.70;70.60
51466;DHT22;37542;50.164;9.086;2022-10-26T04:28:16;8.70;70.50
51466;DHT22;37542;50.164;9.086;2022-10-26T04:31:57;8.70;70.70
51466;DHT22;37542;50.164;9.086;2022-10-26T04:35:38;8.70;70.80
51466;DHT22;37542;50.164;9.086;2022-10-26T04:39:19;8.70;70.40
51466;DHT22;37542;50.164;9.086;2022-10-26T04:43:00;8.70;70.60
51466;DHT22;37542;50.164;9.086;2022-10-26T04:46:41;8.70;70.60
51466;DHT22;37542;50.164;9.086;2022-10-26T04:50:22;8.70;70.70
51466;DHT22;37542;50.164;9.086;2022-10-26T04:54:02;8.70;70.60
51466;DHT22;37542;50.164;9.086;2022-10-26T04:57:44;8.70;70.70
51466;DHT22;37542;50.164;9.086;2022-10-26T05:01:25;8.70;70.80
51466;DHT22;37542;50.164;9.086;2022-10-26T05:05:06;8.80;70.90
51466;DHT22;37542;50.164;9.086;2022-10-26T05:08:47;8.70;71.00
51466;DHT22;37542;50.164;9.086;2022-10-26T05:12:28;8.70;70.90
51466;DHT22;37542;50.164;9.086;2022-10-26T05:16:09;8.70;71.10
51466;DHT22;37542;50.164;9.086;2022-10-26T05:19:50;8.70;71.10
51466;DHT22;37542;50.164;9.086;2022-10-26T05:23:34;8.70;71.10
51466;DHT22;37542;50.164;9.086;2022-10-26T05:27:15;8.70;71.10
51466;DHT22;37542;50.164;9.086;2022-10-26T05:30:57;8.70;71.00
51466;DHT22;37542;50.164;9.086;2022-10-26T05:34:38;8.70;71.10
51466;DHT22;37542;50.164;9.086;2022-10-26T05:38:19;8.70;71.00
51466;DHT22;37542;50.164;9.086;2022-10-26T05:42:00;8.70;71.10
51466;DHT22;37542;50.164;9.086;2022-10-26T05:45:41;8.70;71.00
51466;DHT22;37542;50.164;9.086;2022-10-26T05:49:21;8.60;71.10
51466;DHT22;37542;50.164;9.086;2022-10-26T05:53:02;8.60;71.10
51466;DHT22;37542;50.164;9.086;2022-10-26T05:56:43;8.70;71.10
51466;DHT22;37542;50.164;9.086;2022-10-26T06:00:27;8.60;71.10
51466;DHT22;37542;50.164;9.086;2022-10-26T06:04:12;8.60;71.40
51466;DHT22;37542;50.164;9.086;2022-10-26T06:08:13;8.60;71.30
51466;DHT22;37542;50.164;9.086;2022-10-26T06:11:54;8.60;72.20
51466;DHT22;37542;50.164;9.086;2022-10-26T06:15:48;8.50;71.30
51466;DHT22;37542;50.164;9.086;2022-10-26T06:28:36;8.70;71.80
51466;DHT22;37542;50.164;9.086;2022-10-26T06:32:43;8.50;72.50
51466;DHT22;37542;50.164;9.086;2022-10-26T06:36:53;8.60;71.70
51466;DHT22;37542;50.164;9.086;2022-10-26T06:40:39;8.60;72.70
51466;DHT22;37542;50.164;9.086;2022-10-26T06:44:23;8.60;71.60
51466;DHT22;37542;50.164;9.086;2022-10-26T06:48:13;8.60;71.80
51466;DHT22;37542;50.164;9.086;2022-10-26T06:56:03;8.70;72.20
51466;DHT22;37542;50.164;9.086;2022-10-26T06:59:57;8.70;72.20
51466;DHT22;37542;50.164;9.086;2022-10-26T07:03:41;8.70;72.70
51466;DHT22;37542;50.164;9.086;2022-10-26T07:07:29;8.80;72.40
51466;DHT22;37542;50.164;9.086;2022-10-26T07:11:10;8.80;73.00
51466;DHT22;37542;50.164;9.086;2022-10-26T07:14:51;8.90;72.50
51466;DHT22;37542;50.164;9.086;2022-10-26T07:18:32;9.00;72.60
51466;DHT22;37542;50.164;9.086;2022-10-26T07:22:13;9.00;72.70
51466;DHT22;37542;50.164;9.086;2022-10-26T07:25:54;9.10;72.80
51466;DHT22;37542;50.164;9.086;2022-10-26T07:29:35;9.20;72.80
51466;DHT22;37542;50.164;9.086;2022-10-26T07:33:16;9.20;72.80
51466;DHT22;37542;50.164;9.086;2022-10-26T07:37:00;9.30;72.80
51466;DHT22;37542;50.164;9.086;2022-10-26T07:40:41;9.30;73.20
51466;DHT22;37542;50.164;9.086;2022-10-26T07:44:22;9.40;73.00
51466;DHT22;37542;50.164;9.086;2022-10-26T07:48:03;9.50;73.10
51466;DHT22;37542;50.164;9.086;2022-10-26T07:51:44;9.60;73.10
51466;DHT22;37542;50.164;9.086;2022-10-26T07:55:25;9.60;73.00
51466;DHT22;37542;50.164;9.086;2022-10-26T07:59:10;9.70;73.10
51466;DHT22;37542;50.164;9.086;2022-10-26T08:02:53;9.70;73.30
51466;DHT22;37542;50.164;9.086;2022-10-26T08:06:34;9.80;73.00
51466;DHT22;37542;50.164;9.086;2022-10-26T08:10:15;9.90;73.00
51466;DHT22;37542;50.164;9.086;2022-10-26T08:13:56;9.90;73.00
51466;DHT22;37542;50.164;9.086;2022-10-26T08:17:40;10.00;73.00
51466;DHT22;37542;50.164;9.086;2022-10-26T08:21:23;10.00;73.10
51466;DHT22;37542;50.164;9.086;2022-10-26T08:25:04;10.10;73.20
51466;DHT22;37542;50.164;9.086;2022-10-26T08:28:48;10.20;73.00
51466;DHT22;37542;50.164;9.086;2022-10-26T08:32:56;10.30;73.30
51466;DHT22;37542;50.164;9.086;2022-10-26T08:36:42;10.30;73.30
51466;DHT22;37542;50.164;9.086;2022-10-26T08:40:35;10.40;72.80
51466;DHT22;37542;50.164;9.086;2022-10-26T08:44:50;10.40;73.10
51466;DHT22;37542;50.164;9.086;2022-10-26T08:48:44;10.50;73.50
51466;DHT22;37542;50.164;9.086;2022-10-26T08:57:14;10.70;72.90
51466;DHT22;37542;50.164;9.086;2022-10-26T09:01:02;10.80;72.60
51466;DHT22;37542;50.164;9.086;2022-10-26T09:04:45;10.90;72.40
51466;DHT22;37542;50.164;9.086;2022-10-26T09:08:44;11.00;72.20
51466;DHT22;37542;50.164;9.086;2022-10-26T09:24:55;11.30;72.00
51466;DHT22;37542;50.164;9.086;2022-10-26T09:28:37;11.30;71.80
51466;DHT22;37542;50.164;9.086;2022-10-26T09:32:23;11.40;71.70
51466;DHT22;37542;50.164;9.086;2022-10-26T09:36:20;11.40;71.60
51466;DHT22;37542;50.164;9.086;2022-10-26T09:40:20;11.50;72.00
51466;DHT22;37542;50.164;9.086;2022-10-26T09:44:17;11.60;71.90
51466;DHT22;37542;50.164;9.086;2022-10-26T09:48:50;11.60;71.90
51466;DHT22;37542;50.164;9.086;2022-10-26T09:52:33;11.80;71.60
51466;DHT22;37542;50.164;9.086;2022-10-26T09:56:15;11.80;71.50
51466;DHT22;37542;50.164;9.086;2022-10-26T09:59:57;11.90;71.50
51466;DHT22;37542;50.164;9.086;2022-10-26T10:03:38;12.00;71.40
51466;DHT22;37542;50.164;9.086;2022-10-26T10:07:19;12.10;71.80
51466;DHT22;37542;50.164;9.086;2022-10-26T10:11:08;12.20;71.00
51466;DHT22;37542;50.164;9.086;2022-10-26T10:14:56;12.20;70.40
51466;DHT22;37542;50.164;9.086;2022-10-26T10:18:40;12.30;70.50
51466;DHT22;37542;50.164;9.086;2022-10-26T10:22:25;12.40;70.70
51466;DHT22;37542;50.164;9.086;2022-10-26T10:26:09;12.50;70.80
51466;DHT22;37542;50.164;9.086;2022-10-26T10:29:55;12.70;71.00
51466;DHT22;37542;50.164;9.086;2022-10-26T10:33:39;12.80;71.20
51466;DHT22;37542;50.164;9.086;2022-10-26T10:41:32;13.10;70.60
51466;DHT22;37542;50.164;9.086;2022-10-26T10:45:20;13.20;70.90
51466;DHT22;37542;50.164;9.086;2022-10-26T10:49:06;13.30;70.20
51466;DHT22;37542;50.164;9.086;2022-10-26T10:53:15;13.40;70.10
51466;DHT22;37542;50.164;9.086;2022-10-26T10:57:21;13.50;69.90
51466;DHT22;37542;50.164;9.086;2022-10-26T11:01:23;13.60;69.70
51466;DHT22;37542;50.164;9.086;2022-10-26T11:09:13;13.80;69.90
51466;DHT22;37542;50.164;9.086;2022-10-26T11:12:59;13.90;69.70
51466;DHT22;37542;50.164;9.086;2022-10-26T11:16:50;14.00;70.20
51466;DHT22;37542;50.164;9.086;2022-10-26T11:20:50;14.10;70.00
51466;DHT22;37542;50.164;9.086;2022-10-26T11:24:48;14.30;69.60
51466;DHT22;37542;50.164;9.086;2022-10-26T11:28:53;14.50;69.40
51466;DHT22;37542;50.164;9.086;2022-10-26T11:32:52;14.70;69.20
51466;DHT22;37542;50.164;9.086;2022-10-26T11:36:40;15.00;69.40
51466;DHT22;37542;50.164;9.086;2022-10-26T11:40:56;15.10;69.20
51466;DHT22;37542;50.164;9.086;2022-10-26T11:45:03;15.30;68.20
51466;DHT22;37542;50.164;9.086;2022-10-26T11:53:13;15.70;67.50
51466;DHT22;37542;50.164;9.086;2022-10-26T11:57:01;15.70;66.40
51466;DHT22;37542;50.164;9.086;2022-10-26T12:00:52;15.90;67.10
51466;DHT22;37542;50.164;9.086;2022-10-26T12:04:38;15.90;65.80
51466;DHT22;37542;50.164;9.086;2022-10-26T12:08:41;16.00;66.50
51466;DHT22;37542;50.164;9.086;2022-10-26T12:12:49;16.00;66.40
51466;DHT22;37542;50.164;9.086;2022-10-26T12:24:44;16.20;66.00
51466;DHT22;37542;50.164;9.086;2022-10-26T12:36:48;16.40;65.10
51466;DHT22;37542;50.164;9.086;2022-10-26T12:40:38;16.40;65.40
51466;DHT22;37542;50.164;9.086;2022-10-26T12:44:39;16.50;65.30
51466;DHT22;37542;50.164;9.086;2022-10-26T12:48:49;16.50;64.80
51466;DHT22;37542;50.164;9.086;2022-10-26T12:57:01;16.60;65.50
51466;DHT22;37542;50.164;9.086;2022-10-26T13:05:15;16.70;65.90
51466;DHT22;37542;50.164;9.086;2022-10-26T13:09:36;16.80;64.90
51466;DHT22;37542;50.164;9.086;2022-10-26T13:13:23;16.80;65.40
51466;DHT22;37542;50.164;9.086;2022-10-26T13:17:05;16.90;65.30
51466;DHT22;37542;50.164;9.086;2022-10-26T13:21:13;16.90;65.30
51466;DHT22;37542;50.164;9.086;2022-10-26T13:25:00;16.90;64.60
51466;DHT22;37542;50.164;9.086;2022-10-26T13:28:47;16.90;65.10
51466;DHT22;37542;50.164;9.086;2022-10-26T13:32:40;17.00;65.00
51466;DHT22;37542;50.164;9.086;2022-10-26T13:40:23;17.10;64.20
51466;DHT22;37542;50.164;9.086;2022-10-26T13:44:34;17.10;64.90
51466;DHT22;37542;50.164;9.086;2022-10-26T13:48:19;17.10;64.20
51466;DHT22;37542;50.164;9.086;2022-10-26T13:52:28;17.10;64.30
51466;DHT22;37542;50.164;9.086;2022-10-26T14:00:22;17.10;64.50
51466;DHT22;37542;50.164;9.086;2022-10-26T14:04:25;17.20;64.20
51466;DHT22;37542;50.164;9.086;2022-10-26T14:08:15;17.20;64.30
51466;DHT22;37542;50.164;9.086;2022-10-26T14:11:59;17.20;64.60
51466;DHT22;37542;50.164;9.086;2022-10-26T14:15:43;17.30;64.80
51466;DHT22;37542;50.164;9.086;2022-10-26T14:23:28;17.40;64.80
51466;DHT22;37542;50.164;9.086;2022-10-26T14:27:15;17.40;64.10
51466;DHT22;37542;50.164;9.086;2022-10-26T14:35:11;17.50;63.90
51466;DHT22;37542;50.164;9.086;2022-10-26T14:38:57;17.60;64.10
51466;DHT22;37542;50.164;9.086;2022-10-26T14:42:42;17.60;63.90
51466;DHT22;37542;50.164;9.086;2022-10-26T14:46:33;17.60;64.10
51466;DHT22;37542;50.164;9.086;2022-10-26T14:50:22;17.60;63.60
51466;DHT22;37542;50.164;9.086;2022-10-26T14:54:18;17.60;63.20
51466;DHT22;37542;50.164;9.086;2022-10-26T14:58:14;17.60;63.40
51466;DHT22;37542;50.164;9.086;2022-10-26T15:02:20;17.60;63.40
51466;DHT22;37542;50.164;9.086;2022-10-26T15:14:21;17.60;62.80
51466;DHT22;37542;50.164;9.086;2022-10-26T15:18:02;17.70;63.30
51466;DHT22;37542;50.164;9.086;2022-10-26T15:21:45;17.70;63.40
51466;DHT22;37542;50.164;9.086;2022-10-26T15:25:30;17.70;62.90
51466;DHT22;37542;50.164;9.086;2022-10-26T15:29:39;17.70;63.00
51466;DHT22;37542;50.164;9.086;2022-10-26T15:33:27;17.70;62.90
51466;DHT22;37542;50.164;9.086;2022-10-26T15:37:08;17.60;63.30
51466;DHT22;37542;50.164;9.086;2022-10-26T15:40:48;17.60;63.20
51466;DHT22;37542;50.164;9.086;2022-10-26T15:44:29;17.60;62.80
51466;DHT22;37542;50.164;9.086;2022-10-26T15:48:27;17.50;62.90
51466;DHT22;37542;50.164;9.086;2022-10-26T15:52:11;17.50;62.90
51466;DHT22;37542;50.164;9.086;2022-10-26T15:55:55;17.40;63.30
51466;DHT22;37542;50.164;9.086;2022-10-26T15:59:38;17.30;63.30
51466;DHT22;37542;50.164;9.086;2022-10-26T16:03:23;17.20;63.30
51466;DHT22;37542;50.164;9.086;2022-10-26T16:07:06;17.20;63.40
51466;DHT22;37542;50.164;9.086;2022-10-26T16:10:52;17.00;63.40
51466;DHT22;37542;50.164;9.086;2022-10-26T16:14:33;16.90;63.40
51466;DHT22;37542;50.164;9.086;2022-10-26T16:18:13;16.80;63.50
51466;DHT22;37542;50.164;9.086;2022-10-26T16:21:55;16.70;63.50
51466;DHT22;37542;50.164;9.086;2022-10-26T16:25:41;16.60;63.40
51466;DHT22;37542;50.164;9.086;2022-10-26T16:29:24;16.50;63.70
51466;DHT22;37542;50.164;9.086;2022-10-26T16:33:08;16.40;63.80
51466;DHT22;37542;50.164;9.086;2022-10-26T16:36:49;16.30;63.90
51466;DHT22;37542;50.164;9.086;2022-10-26T16:40:32;16.10;63.90
51466;DHT22;37542;50.164;9.086;2022-10-26T16:44:16;16.00;63.80
51466;DHT22;37542;50.164;9.086;2022-10-26T16:47:57;15.90;63.80
51466;DHT22;37542;50.164;9.086;2022-10-26T16:51:38;15.80;63.90
51466;DHT22;37542;50.164;9.086;2022-10-26T16:55:19;15.70;64.00
51466;DHT22;37542;50.164;9.086;2022-10-26T16:59:04;15.50;64.00
51466;DHT22;37542;50.164;9.086;2022-10-26T17:02:44;15.40;64.10
51466;DHT22;37542;50.164;9.086;2022-10-26T17:06:25;15.30;64.20
51466;DHT22;37542;50.164;9.086;2022-10-26T17:10:07;15.20;64.40
51466;DHT22;37542;50.164;9.086;2022-10-26T17:13:53;15.00;64.50
51466;DHT22;37542;50.164;9.086;2022-10-26T17:17:34;14.90;64.80
51466;DHT22;37542;50.164;9.086;2022-10-26T17:21:18;14.80;64.70
51466;DHT22;37542;50.164;9.086;2022-10-26T17:25:06;14.70;64.90
51466;DHT22;37542;50.164;9.086;2022-10-26T17:28:54;14.60;65.00
51466;DHT22;37542;50.164;9.086;2022-10-26T17:32:36;14.50;65.40
51466;DHT22;37542;50.164;9.086;2022-10-26T17:36:19;14.40;65.00
51466;DHT22;37542;50.164;9.086;2022-10-26T17:40:02;14.30;65.10
51466;DHT22;37542;50.164;9.086;2022-10-26T17:43:45;14.20;65.20
51466;DHT22;37542;50.164;9.086;2022-10-26T17:47:27;14.10;65.30
51466;DHT22;37542;50.164;9.086;2022-10-26T17:51:12;14.00;65.30
51466;DHT22;37542;50.164;9.086;2022-10-26T17:54:54;14.00;65.60
51466;DHT22;37542;50.164;9.086;2022-10-26T17:58:37;13.80;65.50
51466;DHT22;37542;50.164;9.086;2022-10-26T18:02:18;13.70;65.70
51466;DHT22;37542;50.164;9.086;2022-10-26T18:05:59;13.60;65.60
51466;DHT22;37542;50.164;9.086;2022-10-26T18:09:40;13.50;65.10
51466;DHT22;37542;50.164;9.086;2022-10-26T18:13:21;13.40;65.40
51466;DHT22;37542;50.164;9.086;2022-10-26T18:17:02;13.30;65.10
51466;DHT22;37542;50.164;9.086;2022-10-26T18:20:43;13.20;65.20
51466;DHT22;37542;50.164;9.086;2022-10-26T18:24:24;13.10;65.20
51466;DHT22;37542;50.164;9.086;2022-10-26T18:28:05;13.00;65.50
51466;DHT22;37542;50.164;9.086;2022-10-26T18:31:46;12.90;65.60
51466;DHT22;37542;50.164;9.086;2022-10-26T18:35:31;12.80;65.80
51466;DHT22;37542;50.164;9.086;2022-10-26T18:39:14;12.70;66.30
51466;DHT22;37542;50.164;9.086;2022-10-26T18:42:55;12.60;66.30
51466;DHT22;37542;50.164;9.086;2022-10-26T18:46:39;12.60;66.70
51466;DHT22;37542;50.164;9.086;2022-10-26T18:50:26;12.50;66.80
51466;DHT22;37542;50.164;9.086;2022-10-26T18:54:15;12.40;67.40
51466;DHT22;37542;50.164;9.086;2022-10-26T18:57:56;12.40;67.10
51466;DHT22;37542;50.164;9.086;2022-10-26T19:01:37;12.30;67.20
51466;DHT22;37542;50.164;9.086;2022-10-26T19:05:21;12.30;67.40
51466;DHT22;37542;50.164;9.086;2022-10-26T19:09:03;12.20;67.30
51466;DHT22;37542;50.164;9.086;2022-10-26T19:12:45;12.10;67.40
51466;DHT22;37542;50.164;9.086;2022-10-26T19:16:30;12.10;67.60
51466;DHT22;37542;50.164;9.086;2022-10-26T19:20:12;12.00;68.40
51466;DHT22;37542;50.164;9.086;2022-10-26T19:24:14;12.00;67.70
51466;DHT22;37542;50.164;9.086;2022-10-26T19:28:07;11.90;68.10
51466;DHT22;37542;50.164;9.086;2022-10-26T19:31:55;11.80;68.20
51466;DHT22;37542;50.164;9.086;2022-10-26T19:35:36;11.80;67.80
51466;DHT22;37542;50.164;9.086;2022-10-26T19:39:20;11.70;67.70
51466;DHT22;37542;50.164;9.086;2022-10-26T19:43:21;11.70;67.70
51466;DHT22;37542;50.164;9.086;2022-10-26T19:47:06;11.50;68.20
51466;DHT22;37542;50.164;9.086;2022-10-26T19:50:58;11.50;67.80
51466;DHT22;37542;50.164;9.086;2022-10-26T19:54:39;11.40;67.80
51466;DHT22;37542;50.164;9.086;2022-10-26T19:58:41;11.40;67.60
51466;DHT22;37542;50.164;9.086;2022-10-26T20:02:33;11.30;68.50
51466;DHT22;37542;50.164;9.086;2022-10-26T20:06:17;11.30;67.90
51466;DHT22;37542;50.164;9.086;2022-10-26T20:10:01;11.20;68.00
51466;DHT22;37542;50.164;9.086;2022-10-26T20:13:44;11.10;68.10
51466;DHT22;37542;50.164;9.086;2022-10-26T20:17:29;11.10;68.30
51466;DHT22;37542;50.164;9.086;2022-10-26T20:21:10;11.00;68.30
51466;DHT22;37542;50.164;9.086;2022-10-26T20:24:55;11.00;68.30
51466;DHT22;37542;50.164;9.086;2022-10-26T20:32:47;10.90;68.40
51466;DHT22;37542;50.164;9.086;2022-10-26T20:36:28;10.80;68.10
51466;DHT22;37542;50.164;9.086;2022-10-26T20:40:10;10.80;68.00
51466;DHT22;37542;50.164;9.086;2022-10-26T20:43:52;10.70;68.10
51466;DHT22;37542;50.164;9.086;2022-10-26T20:47:33;10.60;68.20
51466;DHT22;37542;50.164;9.086;2022-10-26T20:59:37;10.40;68.80
51466;DHT22;37542;50.164;9.086;2022-10-26T21:03:23;10.40;68.50
51466;DHT22;37542;50.164;9.086;2022-10-26T21:07:07;10.30;68.30
51466;DHT22;37542;50.164;9.086;2022-10-26T21:10:51;10.30;68.40
51466;DHT22;37542;50.164;9.086;2022-10-26T21:14:32;10.20;68.50
51466;DHT22;37542;50.164;9.086;2022-10-26T21:18:19;10.20;68.50
51466;DHT22;37542;50.164;9.086;2022-10-26T21:22:00;10.10;68.60
51466;DHT22;37542;50.164;9.086;2022-10-26T21:25:41;10.10;68.70
51466;DHT22;37542;50.164;9.086;2022-10-26T21:29:22;10.10;68.80
51466;DHT22;37542;50.164;9.086;2022-10-26T21:33:03;10.00;68.90
51466;DHT22;37542;50.164;9.086;2022-10-26T21:36:44;10.00;68.90
51466;DHT22;37542;50.164;9.086;2022-10-26T21:40:25;9.90;68.90
51466;DHT22;37542;50.164;9.086;2022-10-26T21:44:06;9.90;69.00
51466;DHT22;37542;50.164;9.086;2022-10-26T21:47:53;9.80;69.00
51466;DHT22;37542;50.164;9.086;2022-10-26T21:51:34;9.80;69.10
51466;DHT22;37542;50.164;9.086;2022-10-26T21:55:18;9.80;69.00
51466;DHT22;37542;50.164;9.086;2022-10-26T21:59:00;9.70;69.10
51466;DHT22;37542;50.164;9.086;2022-10-26T22:02:41;9.70;69.00
51466;DHT22;37542;50.164;9.086;2022-10-26T22:06:25;9.70;69.20
51466;DHT22;37542;50.164;9.086;2022-10-26T22:10:18;9.60;69.10
51466;DHT22;37542;50.164;9.086;2022-10-26T22:13:59;9.50;68.90
51466;DHT22;37542;50.164;9.086;2022-10-26T22:17:41;9.50;69.00
51466;DHT22;37542;50.164;9.086;2022-10-26T22:21:24;9.50;69.10
51466;DHT22;37542;50.164;9.086;2022-10-26T22:25:06;9.40;68.70
51466;DHT22;37542;50.164;9.086;2022-10-26T22:28:50;9.30;68.50
51466;DHT22;37542;50.164;9.086;2022-10-26T22:32:32;9.30;68.90
51466;DHT22;37542;50.164;9.086;2022-10-26T22:36:14;9.20;68.90
51466;DHT22;37542;50.164;9.086;2022-10-26T22:39:57;9.20;69.20
51466;DHT22;37542;50.164;9.086;2022-10-26T22:43:38;9.10;69.30
51466;DHT22;37542;50.164;9.086;2022-10-26T22:47:19;9.00;69.10
51466;DHT22;37542;50.164;9.086;2022-10-26T22:51:11;9.00;69.20
51466;DHT22;37542;50.164;9.086;2022-10-26T22:54:53;9.00;69.80
51466;DHT22;37542;50.164;9.086;2022-10-26T22:58:35;9.00;69.20
51466;DHT22;37542;50.164;9.086;2022-10-26T23:02:16;8.90;69.20
51466;DHT22;37542;50.164;9.086;2022-10-26T23:05:58;8.90;69.20
51466;DHT22;37542;50.164;9.086;2022-10-26T23:09:39;8.80;69.90
51466;DHT22;37542;50.164;9.086;2022-10-26T23:13:22;8.80;69.30
51466;DHT22;37542;50.164;9.086;2022-10-26T23:17:03;8.80;69.40
51466;DHT22;37542;50.164;9.086;2022-10-26T23:20:49;8.70;69.30
51466;DHT22;37542;50.164;9.086;2022-10-26T23:24:31;8.70;69.60
51466;DHT22;37542;50.164;9.086;2022-10-26T23:28:12;8.70;69.60
51466;DHT22;37542;50.164;9.086;2022-10-26T23:31:52;8.60;69.50
51466;DHT22;37542;50.164;9.086;2022-10-26T23:35:33;8.60;69.50
51466;DHT22;37542;50.164;9.086;2022-10-26T23:39:14;8.60;69.50
51466;DHT22;37542;50.164;9.086;2022-10-26T23:42:55;8.50;69.40
51466;DHT22;37542;50.164;9.086;2022-10-26T23:46:38;8.50;69.30
51466;DHT22;37542;50.164;9.086;2022-10-26T23:50:19;8.50;69.40
51466;DHT22;37542;50.164;9.086;2022-10-26T23:54:00;8.40;69.50
51466;DHT22;37542;50.164;9.086;2022-10-26T23:57:41;8.40;69.50
